UPSVAC Airport Information Service

Mexico City International Airport

ICAO: MMMX Country: Mexico
Latitude: 19.4363 Longitude: -99.072
Latest Arrival : UPS1297 (KSDF-MMMX) Latest Departure : UPS1464 (MMMX-KSDF)


WX CaptureLIVE
Data provided by noaa.gov | Fetched at 13:22:51

METAR : MMMX 141302Z 06004KT 3SM BR SCT250 13/08 A3033 NOSIG RMK 8/001 SFC VSBY 2SM N NE

TAF : MMMX 141309Z 1413/1518 06005KT 3SM BR SCT250 TX28/1421Z TN12/1513Z TEMPO 1413/1415 2SM BKN020 FM141600 23005KT P6SM SCT020 BKN250 FM142200 23015KT P6SM BKN020CB OVC080 TEMPO 1423/1503 2SM TSRA FM150300 03005KT P6SM SCT020 BKN250 FM151600 16005KT P6SM SCT020 SCT250


Runway Data for MMMX
Data provided by openaviationdata.com

Runway ID Mag Var Hdg Length Elevation Surface ILS Freq ILS Id ILS Slope
05L 7 52° 12966 ft 7314 ft Asphalt -- -- --
05R 7 52° 12795 ft 7314 ft Asphalt 109.1 IMWX 3
23L 7 232° 12795 ft 7314 ft Asphalt 109.7 IMEX 3
23R 7 232° 12966 ft 7314 ft Asphalt -- -- --

Mexico City International Airport, Mexico
Use only for reference purposes



Not for navigational purposes.